sensor_id;sensor_type;location;lat;lon;timestamp;P1;durP1;ratioP1;P2;durP2;ratioP2
23702;SDS011;12030;50.376;8.762;2023-04-07T00:00:17;16.13;;;13.63;;
23702;SDS011;12030;50.376;8.762;2023-04-07T00:02:43;14.97;;;13.37;;
23702;SDS011;12030;50.376;8.762;2023-04-07T00:05:09;17.63;;;16.03;;
23702;SDS011;12030;50.376;8.762;2023-04-07T00:07:34;17.40;;;14.17;;
23702;SDS011;12030;50.376;8.762;2023-04-07T00:10:00;18.53;;;14.13;;
23702;SDS011;12030;50.376;8.762;2023-04-07T00:12:25;19.40;;;14.23;;
23702;SDS011;12030;50.376;8.762;2023-04-07T00:14:51;18.80;;;14.13;;
23702;SDS011;12030;50.376;8.762;2023-04-07T00:17:16;17.17;;;14.27;;
23702;SDS011;12030;50.376;8.762;2023-04-07T00:19:42;17.23;;;14.57;;
23702;SDS011;12030;50.376;8.762;2023-04-07T00:22:08;15.23;;;13.57;;
23702;SDS011;12030;50.376;8.762;2023-04-07T00:24:33;16.80;;;13.20;;
23702;SDS011;12030;50.376;8.762;2023-04-07T00:26:59;16.43;;;14.47;;
23702;SDS011;12030;50.376;8.762;2023-04-07T00:29:25;16.07;;;14.37;;
23702;SDS011;12030;50.376;8.762;2023-04-07T00:31:50;19.53;;;14.50;;
23702;SDS011;12030;50.376;8.762;2023-04-07T00:34:16;17.83;;;14.97;;
23702;SDS011;12030;50.376;8.762;2023-04-07T00:36:41;18.43;;;13.97;;
23702;SDS011;12030;50.376;8.762;2023-04-07T00:39:07;16.47;;;14.37;;
23702;SDS011;12030;50.376;8.762;2023-04-07T00:41:33;19.03;;;14.63;;
23702;SDS011;12030;50.376;8.762;2023-04-07T00:44:00;17.63;;;15.20;;
23702;SDS011;12030;50.376;8.762;2023-04-07T00:46:25;18.40;;;16.60;;
23702;SDS011;12030;50.376;8.762;2023-04-07T00:48:51;17.47;;;14.53;;
23702;SDS011;12030;50.376;8.762;2023-04-07T00:51:18;21.23;;;15.57;;
23702;SDS011;12030;50.376;8.762;2023-04-07T00:53:45;18.77;;;15.97;;
23702;SDS011;12030;50.376;8.762;2023-04-07T00:56:11;17.00;;;15.10;;
23702;SDS011;12030;50.376;8.762;2023-04-07T00:58:37;18.87;;;16.50;;
23702;SDS011;12030;50.376;8.762;2023-04-07T01:01:13;17.80;;;15.13;;
23702;SDS011;12030;50.376;8.762;2023-04-07T01:06:47;18.20;;;15.10;;
23702;SDS011;12030;50.376;8.762;2023-04-07T01:09:18;17.20;;;15.03;;
23702;SDS011;12030;50.376;8.762;2023-04-07T01:11:58;18.57;;;15.20;;
23702;SDS011;12030;50.376;8.762;2023-04-07T01:14:50;17.30;;;15.00;;
23702;SDS011;12030;50.376;8.762;2023-04-07T01:17:18;16.07;;;14.37;;
23702;SDS011;12030;50.376;8.762;2023-04-07T01:19:49;18.50;;;14.90;;
23702;SDS011;12030;50.376;8.762;2023-04-07T01:22:26;16.43;;;13.97;;
23702;SDS011;12030;50.376;8.762;2023-04-07T01:30:26;19.47;;;15.23;;
23702;SDS011;12030;50.376;8.762;2023-04-07T01:32:54;19.43;;;14.53;;
23702;SDS011;12030;50.376;8.762;2023-04-07T01:35:22;18.97;;;14.47;;
23702;SDS011;12030;50.376;8.762;2023-04-07T01:37:48;18.93;;;14.53;;
23702;SDS011;12030;50.376;8.762;2023-04-07T01:40:16;18.03;;;14.70;;
23702;SDS011;12030;50.376;8.762;2023-04-07T01:42:42;17.43;;;15.53;;
23702;SDS011;12030;50.376;8.762;2023-04-07T01:45:09;18.33;;;14.87;;
23702;SDS011;12030;50.376;8.762;2023-04-07T01:47:36;18.50;;;14.83;;
23702;SDS011;12030;50.376;8.762;2023-04-07T01:50:02;17.60;;;15.80;;
23702;SDS011;12030;50.376;8.762;2023-04-07T01:52:29;17.43;;;15.27;;
23702;SDS011;12030;50.376;8.762;2023-04-07T01:54:56;18.20;;;14.50;;
23702;SDS011;12030;50.376;8.762;2023-04-07T01:57:22;18.67;;;14.00;;
23702;SDS011;12030;50.376;8.762;2023-04-07T01:59:47;18.07;;;16.23;;
23702;SDS011;12030;50.376;8.762;2023-04-07T02:02:13;16.77;;;13.77;;
23702;SDS011;12030;50.376;8.762;2023-04-07T02:07:12;18.53;;;13.60;;
23702;SDS011;12030;50.376;8.762;2023-04-07T02:09:43;14.73;;;13.13;;
23702;SDS011;12030;50.376;8.762;2023-04-07T02:12:10;15.53;;;13.57;;
23702;SDS011;12030;50.376;8.762;2023-04-07T02:14:38;18.00;;;13.57;;
23702;SDS011;12030;50.376;8.762;2023-04-07T02:17:04;16.73;;;12.80;;
23702;SDS011;12030;50.376;8.762;2023-04-07T02:19:31;15.10;;;12.90;;
23702;SDS011;12030;50.376;8.762;2023-04-07T02:22:01;13.70;;;11.63;;
23702;SDS011;12030;50.376;8.762;2023-04-07T02:24:28;14.27;;;12.20;;
23702;SDS011;12030;50.376;8.762;2023-04-07T02:26:54;14.33;;;12.10;;
23702;SDS011;12030;50.376;8.762;2023-04-07T02:29:20;15.53;;;11.97;;
23702;SDS011;12030;50.376;8.762;2023-04-07T02:31:45;13.60;;;11.87;;
23702;SDS011;12030;50.376;8.762;2023-04-07T02:34:11;13.93;;;11.87;;
23702;SDS011;12030;50.376;8.762;2023-04-07T02:36:36;19.10;;;12.00;;
23702;SDS011;12030;50.376;8.762;2023-04-07T02:39:02;15.37;;;11.87;;
23702;SDS011;12030;50.376;8.762;2023-04-07T02:41:28;13.37;;;11.83;;
23702;SDS011;12030;50.376;8.762;2023-04-07T02:43:53;13.97;;;11.67;;
23702;SDS011;12030;50.376;8.762;2023-04-07T02:46:19;12.50;;;11.13;;
23702;SDS011;12030;50.376;8.762;2023-04-07T02:48:44;13.00;;;11.10;;
23702;SDS011;12030;50.376;8.762;2023-04-07T02:51:10;14.17;;;12.30;;
23702;SDS011;12030;50.376;8.762;2023-04-07T02:53:36;11.97;;;10.57;;
23702;SDS011;12030;50.376;8.762;2023-04-07T02:56:01;12.43;;;10.93;;
23702;SDS011;12030;50.376;8.762;2023-04-07T02:58:27;12.27;;;10.97;;
23702;SDS011;12030;50.376;8.762;2023-04-07T03:00:52;12.30;;;10.97;;
23702;SDS011;12030;50.376;8.762;2023-04-07T03:03:18;14.30;;;10.50;;
23702;SDS011;12030;50.376;8.762;2023-04-07T03:05:43;12.90;;;10.53;;
23702;SDS011;12030;50.376;8.762;2023-04-07T03:08:09;12.30;;;11.00;;
23702;SDS011;12030;50.376;8.762;2023-04-07T03:10:34;11.60;;;10.23;;
23702;SDS011;12030;50.376;8.762;2023-04-07T03:13:00;11.63;;;10.43;;
23702;SDS011;12030;50.376;8.762;2023-04-07T03:15:25;12.37;;;11.07;;
23702;SDS011;12030;50.376;8.762;2023-04-07T03:17:51;12.53;;;10.93;;
23702;SDS011;12030;50.376;8.762;2023-04-07T03:20:16;13.70;;;10.77;;
23702;SDS011;12030;50.376;8.762;2023-04-07T03:22:42;13.57;;;11.03;;
23702;SDS011;12030;50.376;8.762;2023-04-07T03:25:08;11.23;;;9.93;;
23702;SDS011;12030;50.376;8.762;2023-04-07T03:27:34;12.53;;;10.93;;
23702;SDS011;12030;50.376;8.762;2023-04-07T03:30:00;12.70;;;10.30;;
23702;SDS011;12030;50.376;8.762;2023-04-07T03:32:26;13.07;;;10.13;;
23702;SDS011;12030;50.376;8.762;2023-04-07T03:34:51;13.50;;;11.03;;
23702;SDS011;12030;50.376;8.762;2023-04-07T03:37:17;11.70;;;10.50;;
23702;SDS011;12030;50.376;8.762;2023-04-07T03:39:42;11.83;;;10.50;;
23702;SDS011;12030;50.376;8.762;2023-04-07T03:42:08;11.47;;;10.27;;
23702;SDS011;12030;50.376;8.762;2023-04-07T03:44:33;13.57;;;10.33;;
23702;SDS011;12030;50.376;8.762;2023-04-07T03:46:59;11.73;;;10.30;;
23702;SDS011;12030;50.376;8.762;2023-04-07T03:49:25;12.80;;;10.93;;
23702;SDS011;12030;50.376;8.762;2023-04-07T03:51:51;11.43;;;10.07;;
23702;SDS011;12030;50.376;8.762;2023-04-07T03:54:16;11.77;;;10.57;;
23702;SDS011;12030;50.376;8.762;2023-04-07T03:56:42;13.10;;;10.70;;
23702;SDS011;12030;50.376;8.762;2023-04-07T03:59:07;10.60;;;9.50;;
23702;SDS011;12030;50.376;8.762;2023-04-07T04:01:33;11.27;;;9.23;;
23702;SDS011;12030;50.376;8.762;2023-04-07T04:04:00;10.07;;;8.67;;
23702;SDS011;12030;50.376;8.762;2023-04-07T04:06:26;11.70;;;10.00;;
23702;SDS011;12030;50.376;8.762;2023-04-07T04:08:51;11.93;;;9.13;;
23702;SDS011;12030;50.376;8.762;2023-04-07T04:11:17;10.20;;;9.20;;
23702;SDS011;12030;50.376;8.762;2023-04-07T04:13:42;10.30;;;8.90;;
23702;SDS011;12030;50.376;8.762;2023-04-07T04:16:08;10.43;;;9.37;;
23702;SDS011;12030;50.376;8.762;2023-04-07T04:18:34;10.40;;;9.20;;
23702;SDS011;12030;50.376;8.762;2023-04-07T04:20:59;12.03;;;10.60;;
23702;SDS011;12030;50.376;8.762;2023-04-07T04:23:25;11.03;;;9.70;;
23702;SDS011;12030;50.376;8.762;2023-04-07T04:25:50;10.43;;;9.20;;
23702;SDS011;12030;50.376;8.762;2023-04-07T04:28:16;12.83;;;10.33;;
23702;SDS011;12030;50.376;8.762;2023-04-07T04:30:41;12.03;;;10.20;;
23702;SDS011;12030;50.376;8.762;2023-04-07T04:33:07;10.07;;;9.03;;
23702;SDS011;12030;50.376;8.762;2023-04-07T04:35:32;11.83;;;10.00;;
23702;SDS011;12030;50.376;8.762;2023-04-07T04:37:58;11.07;;;9.87;;
23702;SDS011;12030;50.376;8.762;2023-04-07T04:40:23;14.43;;;11.03;;
23702;SDS011;12030;50.376;8.762;2023-04-07T04:42:49;12.30;;;10.03;;
23702;SDS011;12030;50.376;8.762;2023-04-07T04:45:14;11.03;;;9.40;;
23702;SDS011;12030;50.376;8.762;2023-04-07T04:47:40;11.90;;;9.37;;
23702;SDS011;12030;50.376;8.762;2023-04-07T04:50:08;13.20;;;9.87;;
23702;SDS011;12030;50.376;8.762;2023-04-07T04:52:34;14.20;;;10.40;;
23702;SDS011;12030;50.376;8.762;2023-04-07T04:55:00;10.70;;;9.60;;
23702;SDS011;12030;50.376;8.762;2023-04-07T04:57:25;11.10;;;9.77;;
23702;SDS011;12030;50.376;8.762;2023-04-07T04:59:51;11.10;;;9.53;;
23702;SDS011;12030;50.376;8.762;2023-04-07T05:02:16;11.30;;;9.47;;
23702;SDS011;12030;50.376;8.762;2023-04-07T05:04:42;13.00;;;9.87;;
23702;SDS011;12030;50.376;8.762;2023-04-07T05:07:07;12.33;;;9.60;;
23702;SDS011;12030;50.376;8.762;2023-04-07T05:09:33;10.63;;;9.50;;
23702;SDS011;12030;50.376;8.762;2023-04-07T05:11:58;10.37;;;8.53;;
23702;SDS011;12030;50.376;8.762;2023-04-07T05:14:25;10.03;;;9.03;;
23702;SDS011;12030;50.376;8.762;2023-04-07T05:16:51;11.07;;;9.23;;
23702;SDS011;12030;50.376;8.762;2023-04-07T05:19:18;10.73;;;9.13;;
23702;SDS011;12030;50.376;8.762;2023-04-07T05:21:43;11.20;;;9.13;;
23702;SDS011;12030;50.376;8.762;2023-04-07T05:24:09;9.80;;;8.80;;
23702;SDS011;12030;50.376;8.762;2023-04-07T05:26:34;11.63;;;10.40;;
23702;SDS011;12030;50.376;8.762;2023-04-07T05:29:00;10.77;;;9.33;;
23702;SDS011;12030;50.376;8.762;2023-04-07T05:31:25;11.03;;;9.37;;
23702;SDS011;12030;50.376;8.762;2023-04-07T05:33:51;12.20;;;11.00;;
23702;SDS011;12030;50.376;8.762;2023-04-07T05:36:16;12.97;;;9.70;;
23702;SDS011;12030;50.376;8.762;2023-04-07T05:38:42;12.87;;;10.30;;
23702;SDS011;12030;50.376;8.762;2023-04-07T05:41:08;10.53;;;9.17;;
23702;SDS011;12030;50.376;8.762;2023-04-07T05:43:34;11.03;;;10.03;;
23702;SDS011;12030;50.376;8.762;2023-04-07T05:45:59;10.40;;;9.30;;
23702;SDS011;12030;50.376;8.762;2023-04-07T05:48:25;11.40;;;9.03;;
23702;SDS011;12030;50.376;8.762;2023-04-07T05:50:50;10.30;;;9.27;;
23702;SDS011;12030;50.376;8.762;2023-04-07T05:53:16;10.20;;;9.17;;
23702;SDS011;12030;50.376;8.762;2023-04-07T05:55:42;10.37;;;9.27;;
23702;SDS011;12030;50.376;8.762;2023-04-07T05:58:07;10.13;;;9.03;;
23702;SDS011;12030;50.376;8.762;2023-04-07T06:00:33;10.17;;;9.13;;
23702;SDS011;12030;50.376;8.762;2023-04-07T06:02:58;9.97;;;8.87;;
23702;SDS011;12030;50.376;8.762;2023-04-07T06:05:25;11.23;;;9.47;;
23702;SDS011;12030;50.376;8.762;2023-04-07T06:07:51;11.00;;;9.20;;
23702;SDS011;12030;50.376;8.762;2023-04-07T06:10:16;10.03;;;8.80;;
23702;SDS011;12030;50.376;8.762;2023-04-07T06:12:42;10.37;;;8.97;;
23702;SDS011;12030;50.376;8.762;2023-04-07T06:15:07;10.40;;;8.73;;
23702;SDS011;12030;50.376;8.762;2023-04-07T06:17:33;9.90;;;7.83;;
23702;SDS011;12030;50.376;8.762;2023-04-07T06:19:59;9.60;;;8.13;;
23702;SDS011;12030;50.376;8.762;2023-04-07T06:22:24;11.20;;;7.73;;
23702;SDS011;12030;50.376;8.762;2023-04-07T06:24:50;10.50;;;9.50;;
23702;SDS011;12030;50.376;8.762;2023-04-07T06:27:16;10.00;;;7.73;;
23702;SDS011;12030;50.376;8.762;2023-04-07T06:29:42;9.40;;;8.40;;
23702;SDS011;12030;50.376;8.762;2023-04-07T06:32:08;9.57;;;8.50;;
23702;SDS011;12030;50.376;8.762;2023-04-07T06:34:33;12.10;;;8.97;;
23702;SDS011;12030;50.376;8.762;2023-04-07T06:36:59;9.90;;;9.00;;
23702;SDS011;12030;50.376;8.762;2023-04-07T06:39:25;10.00;;;8.50;;
23702;SDS011;12030;50.376;8.762;2023-04-07T06:41:51;9.03;;;8.13;;
23702;SDS011;12030;50.376;8.762;2023-04-07T06:44:17;10.40;;;9.50;;
23702;SDS011;12030;50.376;8.762;2023-04-07T06:46:42;9.90;;;8.90;;
23702;SDS011;12030;50.376;8.762;2023-04-07T06:49:11;10.00;;;9.10;;
23702;SDS011;12030;50.376;8.762;2023-04-07T06:51:36;9.27;;;8.47;;
23702;SDS011;12030;50.376;8.762;2023-04-07T06:54:02;9.53;;;8.53;;
23702;SDS011;12030;50.376;8.762;2023-04-07T06:56:29;8.97;;;8.07;;
23702;SDS011;12030;50.376;8.762;2023-04-07T06:58:55;10.10;;;9.20;;
23702;SDS011;12030;50.376;8.762;2023-04-07T07:01:20;10.17;;;9.27;;
23702;SDS011;12030;50.376;8.762;2023-04-07T07:03:46;9.77;;;8.87;;
23702;SDS011;12030;50.376;8.762;2023-04-07T07:06:11;10.17;;;9.20;;
23702;SDS011;12030;50.376;8.762;2023-04-07T07:08:38;8.67;;;7.77;;
23702;SDS011;12030;50.376;8.762;2023-04-07T07:11:03;9.67;;;8.67;;
23702;SDS011;12030;50.376;8.762;2023-04-07T07:13:29;9.30;;;8.50;;
23702;SDS011;12030;50.376;8.762;2023-04-07T07:15:55;8.43;;;7.10;;
23702;SDS011;12030;50.376;8.762;2023-04-07T07:18:20;8.37;;;7.57;;
23702;SDS011;12030;50.376;8.762;2023-04-07T07:20:46;9.93;;;8.93;;
23702;SDS011;12030;50.376;8.762;2023-04-07T07:23:11;8.60;;;7.67;;
23702;SDS011;12030;50.376;8.762;2023-04-07T07:25:37;8.33;;;7.63;;
23702;SDS011;12030;50.376;8.762;2023-04-07T07:28:02;9.17;;;7.90;;
23702;SDS011;12030;50.376;8.762;2023-04-07T07:30:28;8.57;;;7.43;;
23702;SDS011;12030;50.376;8.762;2023-04-07T07:32:54;9.33;;;8.47;;
23702;SDS011;12030;50.376;8.762;2023-04-07T07:35:20;8.67;;;7.87;;
23702;SDS011;12030;50.376;8.762;2023-04-07T07:37:46;8.27;;;7.57;;
23702;SDS011;12030;50.376;8.762;2023-04-07T07:40:12;9.23;;;8.33;;
23702;SDS011;12030;50.376;8.762;2023-04-07T07:42:37;8.93;;;8.03;;
23702;SDS011;12030;50.376;8.762;2023-04-07T07:45:04;8.13;;;7.43;;
23702;SDS011;12030;50.376;8.762;2023-04-07T07:47:30;9.03;;;8.23;;
23702;SDS011;12030;50.376;8.762;2023-04-07T07:49:56;8.27;;;7.47;;
23702;SDS011;12030;50.376;8.762;2023-04-07T07:52:21;8.90;;;8.10;;
23702;SDS011;12030;50.376;8.762;2023-04-07T07:54:47;8.60;;;7.90;;
23702;SDS011;12030;50.376;8.762;2023-04-07T07:57:14;8.93;;;8.03;;
23702;SDS011;12030;50.376;8.762;2023-04-07T07:59:40;8.07;;;7.37;;
23702;SDS011;12030;50.376;8.762;2023-04-07T08:02:06;8.37;;;7.63;;
23702;SDS011;12030;50.376;8.762;2023-04-07T08:04:32;8.23;;;7.53;;
23702;SDS011;12030;50.376;8.762;2023-04-07T08:06:59;8.50;;;7.77;;
23702;SDS011;12030;50.376;8.762;2023-04-07T08:09:24;8.43;;;7.40;;
23702;SDS011;12030;50.376;8.762;2023-04-07T08:11:50;8.27;;;7.50;;
23702;SDS011;12030;50.376;8.762;2023-04-07T08:14:16;8.27;;;7.47;;
23702;SDS011;12030;50.376;8.762;2023-04-07T08:16:42;8.10;;;7.23;;
23702;SDS011;12030;50.376;8.762;2023-04-07T08:19:08;7.93;;;7.13;;
23702;SDS011;12030;50.376;8.762;2023-04-07T08:21:33;7.33;;;6.63;;
23702;SDS011;12030;50.376;8.762;2023-04-07T08:23:59;8.07;;;7.33;;
23702;SDS011;12030;50.376;8.762;2023-04-07T08:26:25;7.77;;;7.07;;
23702;SDS011;12030;50.376;8.762;2023-04-07T08:28:51;8.00;;;7.20;;
23702;SDS011;12030;50.376;8.762;2023-04-07T08:31:17;8.03;;;7.33;;
23702;SDS011;12030;50.376;8.762;2023-04-07T08:33:43;7.97;;;7.17;;
23702;SDS011;12030;50.376;8.762;2023-04-07T08:36:08;8.40;;;7.20;;
23702;SDS011;12030;50.376;8.762;2023-04-07T08:38:34;7.77;;;7.07;;
23702;SDS011;12030;50.376;8.762;2023-04-07T08:41:02;7.93;;;7.10;;
23702;SDS011;12030;50.376;8.762;2023-04-07T08:43:31;6.87;;;6.27;;
23702;SDS011;12030;50.376;8.762;2023-04-07T08:45:59;6.90;;;6.30;;
23702;SDS011;12030;50.376;8.762;2023-04-07T08:48:26;7.27;;;6.67;;
23702;SDS011;12030;50.376;8.762;2023-04-07T08:50:57;7.37;;;6.67;;
23702;SDS011;12030;50.376;8.762;2023-04-07T08:53:31;7.77;;;7.07;;
23702;SDS011;12030;50.376;8.762;2023-04-07T08:56:04;7.23;;;6.63;;
23702;SDS011;12030;50.376;8.762;2023-04-07T08:58:31;7.57;;;6.93;;
23702;SDS011;12030;50.376;8.762;2023-04-07T09:00:57;7.70;;;6.90;;
23702;SDS011;12030;50.376;8.762;2023-04-07T09:03:23;7.63;;;6.90;;
23702;SDS011;12030;50.376;8.762;2023-04-07T09:05:50;8.80;;;8.00;;
23702;SDS011;12030;50.376;8.762;2023-04-07T09:08:16;8.30;;;7.60;;
23702;SDS011;12030;50.376;8.762;2023-04-07T09:10:41;7.97;;;7.27;;
23702;SDS011;12030;50.376;8.762;2023-04-07T09:13:07;7.93;;;7.13;;
23702;SDS011;12030;50.376;8.762;2023-04-07T09:15:32;7.33;;;6.73;;
23702;SDS011;12030;50.376;8.762;2023-04-07T09:17:58;9.13;;;7.23;;
23702;SDS011;12030;50.376;8.762;2023-04-07T09:20:24;7.93;;;7.23;;
23702;SDS011;12030;50.376;8.762;2023-04-07T09:22:49;7.87;;;7.17;;
23702;SDS011;12030;50.376;8.762;2023-04-07T09:25:16;8.07;;;7.37;;
23702;SDS011;12030;50.376;8.762;2023-04-07T09:27:57;7.30;;;6.60;;
23702;SDS011;12030;50.376;8.762;2023-04-07T09:30:26;7.73;;;7.03;;
23702;SDS011;12030;50.376;8.762;2023-04-07T09:32:53;7.97;;;7.20;;
23702;SDS011;12030;50.376;8.762;2023-04-07T09:35:19;8.07;;;7.37;;
23702;SDS011;12030;50.376;8.762;2023-04-07T09:38:00;6.10;;;5.50;;
23702;SDS011;12030;50.376;8.762;2023-04-07T09:40:27;7.33;;;6.67;;
23702;SDS011;12030;50.376;8.762;2023-04-07T09:42:53;7.57;;;6.90;;
23702;SDS011;12030;50.376;8.762;2023-04-07T09:45:22;7.83;;;7.10;;
23702;SDS011;12030;50.376;8.762;2023-04-07T09:47:49;8.27;;;7.57;;
23702;SDS011;12030;50.376;8.762;2023-04-07T09:50:15;8.97;;;8.17;;
23702;SDS011;12030;50.376;8.762;2023-04-07T09:52:56;8.53;;;7.73;;
23702;SDS011;12030;50.376;8.762;2023-04-07T09:55:22;8.53;;;7.77;;
23702;SDS011;12030;50.376;8.762;2023-04-07T09:57:48;7.73;;;7.03;;
23702;SDS011;12030;50.376;8.762;2023-04-07T10:00:15;7.60;;;6.90;;
23702;SDS011;12030;50.376;8.762;2023-04-07T10:02:41;7.87;;;7.27;;
23702;SDS011;12030;50.376;8.762;2023-04-07T10:05:08;7.87;;;7.17;;
23702;SDS011;12030;50.376;8.762;2023-04-07T10:07:34;7.27;;;6.67;;
23702;SDS011;12030;50.376;8.762;2023-04-07T10:10:01;7.73;;;7.00;;
23702;SDS011;12030;50.376;8.762;2023-04-07T10:12:29;8.17;;;7.37;;
23702;SDS011;12030;50.376;8.762;2023-04-07T10:14:56;7.97;;;7.17;;
23702;SDS011;12030;50.376;8.762;2023-04-07T10:17:24;7.57;;;6.87;;
23702;SDS011;12030;50.376;8.762;2023-04-07T10:19:52;8.43;;;7.63;;
23702;SDS011;12030;50.376;8.762;2023-04-07T10:22:18;7.87;;;7.17;;
23702;SDS011;12030;50.376;8.762;2023-04-07T10:24:50;7.60;;;6.90;;
23702;SDS011;12030;50.376;8.762;2023-04-07T10:27:30;8.27;;;7.57;;
23702;SDS011;12030;50.376;8.762;2023-04-07T10:29:57;7.83;;;7.13;;
23702;SDS011;12030;50.376;8.762;2023-04-07T10:32:24;7.93;;;7.23;;
23702;SDS011;12030;50.376;8.762;2023-04-07T10:37:17;8.03;;;7.33;;
23702;SDS011;12030;50.376;8.762;2023-04-07T10:39:45;8.23;;;7.43;;
23702;SDS011;12030;50.376;8.762;2023-04-07T10:45:03;8.53;;;7.73;;
23702;SDS011;12030;50.376;8.762;2023-04-07T10:47:33;7.47;;;6.77;;
23702;SDS011;12030;50.376;8.762;2023-04-07T10:52:46;7.37;;;6.70;;
23702;SDS011;12030;50.376;8.762;2023-04-07T10:55:34;6.53;;;6.03;;
23702;SDS011;12030;50.376;8.762;2023-04-07T11:03:29;6.03;;;5.37;;
23702;SDS011;12030;50.376;8.762;2023-04-07T11:06:02;6.40;;;5.90;;
23702;SDS011;12030;50.376;8.762;2023-04-07T11:08:36;6.80;;;6.20;;
23702;SDS011;12030;50.376;8.762;2023-04-07T11:11:05;6.67;;;6.17;;
23702;SDS011;12030;50.376;8.762;2023-04-07T11:13:42;7.00;;;6.40;;
23702;SDS011;12030;50.376;8.762;2023-04-07T11:16:07;6.43;;;5.83;;
23702;SDS011;12030;50.376;8.762;2023-04-07T11:18:34;11.47;;;10.33;;
23702;SDS011;12030;50.376;8.762;2023-04-07T11:21:01;8.80;;;7.90;;
23702;SDS011;12030;50.376;8.762;2023-04-07T11:23:27;7.80;;;7.10;;
23702;SDS011;12030;50.376;8.762;2023-04-07T11:25:59;20.00;;;16.23;;
23702;SDS011;12030;50.376;8.762;2023-04-07T11:28:26;8.23;;;7.43;;
23702;SDS011;12030;50.376;8.762;2023-04-07T11:30:52;11.17;;;10.07;;
23702;SDS011;12030;50.376;8.762;2023-04-07T11:33:19;10.77;;;9.87;;
23702;SDS011;12030;50.376;8.762;2023-04-07T11:35:50;7.47;;;6.87;;
23702;SDS011;12030;50.376;8.762;2023-04-07T11:38:26;7.47;;;6.77;;
23702;SDS011;12030;50.376;8.762;2023-04-07T11:40:53;7.60;;;6.93;;
23702;SDS011;12030;50.376;8.762;2023-04-07T11:43:21;7.37;;;6.67;;
23702;SDS011;12030;50.376;8.762;2023-04-07T11:48:39;6.93;;;6.33;;
23702;SDS011;12030;50.376;8.762;2023-04-07T11:51:06;6.37;;;5.63;;
23702;SDS011;12030;50.376;8.762;2023-04-07T11:53:40;7.50;;;6.70;;
23702;SDS011;12030;50.376;8.762;2023-04-07T11:56:06;11.43;;;10.33;;
23702;SDS011;12030;50.376;8.762;2023-04-07T11:58:45;7.10;;;6.40;;
23702;SDS011;12030;50.376;8.762;2023-04-07T12:01:15;9.57;;;8.67;;
23702;SDS011;12030;50.376;8.762;2023-04-07T12:04:00;5.80;;;5.30;;
23702;SDS011;12030;50.376;8.762;2023-04-07T12:06:28;5.30;;;4.80;;
23702;SDS011;12030;50.376;8.762;2023-04-07T12:08:59;5.50;;;5.00;;
23702;SDS011;12030;50.376;8.762;2023-04-07T12:11:29;5.43;;;4.50;;
23702;SDS011;12030;50.376;8.762;2023-04-07T12:13:55;5.00;;;4.50;;
23702;SDS011;12030;50.376;8.762;2023-04-07T12:16:21;4.80;;;4.40;;
23702;SDS011;12030;50.376;8.762;2023-04-07T12:18:47;5.47;;;4.97;;
23702;SDS011;12030;50.376;8.762;2023-04-07T12:21:13;4.73;;;4.33;;
23702;SDS011;12030;50.376;8.762;2023-04-07T12:23:39;4.20;;;3.90;;
23702;SDS011;12030;50.376;8.762;2023-04-07T12:26:06;3.97;;;3.67;;
23702;SDS011;12030;50.376;8.762;2023-04-07T12:28:31;13.77;;;12.33;;
23702;SDS011;12030;50.376;8.762;2023-04-07T12:30:57;3.60;;;3.30;;
23702;SDS011;12030;50.376;8.762;2023-04-07T12:33:23;3.47;;;3.17;;
23702;SDS011;12030;50.376;8.762;2023-04-07T12:35:48;3.40;;;3.10;;
23702;SDS011;12030;50.376;8.762;2023-04-07T12:38:14;7.20;;;6.53;;
23702;SDS011;12030;50.376;8.762;2023-04-07T12:40:40;11.63;;;10.17;;
23702;SDS011;12030;50.376;8.762;2023-04-07T12:43:06;3.63;;;3.33;;
23702;SDS011;12030;50.376;8.762;2023-04-07T12:45:31;3.50;;;3.20;;
23702;SDS011;12030;50.376;8.762;2023-04-07T12:47:57;3.80;;;3.50;;
23702;SDS011;12030;50.376;8.762;2023-04-07T12:50:23;4.47;;;3.83;;
23702;SDS011;12030;50.376;8.762;2023-04-07T12:52:49;3.77;;;3.47;;
23702;SDS011;12030;50.376;8.762;2023-04-07T12:55:15;4.03;;;3.13;;
23702;SDS011;12030;50.376;8.762;2023-04-07T12:57:42;3.23;;;3.03;;
23702;SDS011;12030;50.376;8.762;2023-04-07T13:00:08;3.23;;;2.93;;
23702;SDS011;12030;50.376;8.762;2023-04-07T13:02:34;3.10;;;2.80;;
23702;SDS011;12030;50.376;8.762;2023-04-07T13:05:00;3.17;;;2.87;;
23702;SDS011;12030;50.376;8.762;2023-04-07T13:07:26;3.20;;;2.90;;
23702;SDS011;12030;50.376;8.762;2023-04-07T13:09:52;3.43;;;3.13;;
23702;SDS011;12030;50.376;8.762;2023-04-07T13:12:18;3.10;;;2.90;;
23702;SDS011;12030;50.376;8.762;2023-04-07T13:14:44;2.97;;;2.73;;
23702;SDS011;12030;50.376;8.762;2023-04-07T13:17:10;2.50;;;2.17;;
23702;SDS011;12030;50.376;8.762;2023-04-07T13:19:35;2.93;;;2.73;;
23702;SDS011;12030;50.376;8.762;2023-04-07T13:22:01;2.57;;;2.37;;
23702;SDS011;12030;50.376;8.762;2023-04-07T13:24:27;2.40;;;2.20;;
23702;SDS011;12030;50.376;8.762;2023-04-07T13:26:52;2.67;;;2.47;;
23702;SDS011;12030;50.376;8.762;2023-04-07T13:29:19;3.80;;;3.40;;
23702;SDS011;12030;50.376;8.762;2023-04-07T13:31:45;3.43;;;3.13;;
23702;SDS011;12030;50.376;8.762;2023-04-07T13:34:11;4.17;;;3.80;;
23702;SDS011;12030;50.376;8.762;2023-04-07T13:36:37;5.03;;;4.53;;
23702;SDS011;12030;50.376;8.762;2023-04-07T13:39:03;3.40;;;3.10;;
23702;SDS011;12030;50.376;8.762;2023-04-07T13:41:29;3.93;;;3.63;;
23702;SDS011;12030;50.376;8.762;2023-04-07T13:43:55;3.40;;;3.10;;
23702;SDS011;12030;50.376;8.762;2023-04-07T13:46:22;3.37;;;3.07;;
23702;SDS011;12030;50.376;8.762;2023-04-07T13:48:48;4.60;;;4.10;;
23702;SDS011;12030;50.376;8.762;2023-04-07T13:51:14;3.43;;;3.03;;
23702;SDS011;12030;50.376;8.762;2023-04-07T13:53:40;5.97;;;4.63;;
23702;SDS011;12030;50.376;8.762;2023-04-07T13:56:06;4.20;;;3.07;;
23702;SDS011;12030;50.376;8.762;2023-04-07T13:58:32;3.40;;;3.10;;
23702;SDS011;12030;50.376;8.762;2023-04-07T14:00:58;2.57;;;2.30;;
23702;SDS011;12030;50.376;8.762;2023-04-07T14:03:24;5.40;;;4.60;;
23702;SDS011;12030;50.376;8.762;2023-04-07T14:05:50;4.27;;;3.53;;
23702;SDS011;12030;50.376;8.762;2023-04-07T14:08:15;3.30;;;3.00;;
23702;SDS011;12030;50.376;8.762;2023-04-07T14:10:42;3.93;;;2.80;;
23702;SDS011;12030;50.376;8.762;2023-04-07T14:13:08;6.87;;;6.17;;
23702;SDS011;12030;50.376;8.762;2023-04-07T14:15:34;3.20;;;2.90;;
23702;SDS011;12030;50.376;8.762;2023-04-07T14:18:00;2.60;;;2.40;;
23702;SDS011;12030;50.376;8.762;2023-04-07T14:20:25;2.80;;;2.60;;
23702;SDS011;12030;50.376;8.762;2023-04-07T14:22:51;3.20;;;2.90;;
23702;SDS011;12030;50.376;8.762;2023-04-07T14:25:17;1.70;;;1.60;;
23702;SDS011;12030;50.376;8.762;2023-04-07T14:27:42;1.60;;;1.50;;
23702;SDS011;12030;50.376;8.762;2023-04-07T14:30:08;3.20;;;2.80;;
23702;SDS011;12030;50.376;8.762;2023-04-07T14:32:34;2.47;;;1.80;;
23702;SDS011;12030;50.376;8.762;2023-04-07T14:35:00;2.90;;;2.03;;
23702;SDS011;12030;50.376;8.762;2023-04-07T14:37:26;1.93;;;1.70;;
23702;SDS011;12030;50.376;8.762;2023-04-07T14:39:52;10.77;;;7.37;;
23702;SDS011;12030;50.376;8.762;2023-04-07T14:42:18;2.30;;;2.10;;
23702;SDS011;12030;50.376;8.762;2023-04-07T14:44:44;2.10;;;1.73;;
23702;SDS011;12030;50.376;8.762;2023-04-07T14:47:09;3.10;;;2.20;;
23702;SDS011;12030;50.376;8.762;2023-04-07T14:49:35;1.67;;;1.57;;
23702;SDS011;12030;50.376;8.762;2023-04-07T14:52:01;1.70;;;1.60;;
23702;SDS011;12030;50.376;8.762;2023-04-07T14:54:27;1.60;;;1.50;;
23702;SDS011;12030;50.376;8.762;2023-04-07T14:56:53;1.80;;;1.70;;
23702;SDS011;12030;50.376;8.762;2023-04-07T14:59:19;1.97;;;1.47;;
23702;SDS011;12030;50.376;8.762;2023-04-07T15:01:44;2.50;;;1.30;;